Time;durP1;ratioP1;P1;durP2;ratioP2;P2;SDS_P1;SDS_P2;PMS_P1;PMS_P2;Temp;Humidity;BMP_temperature;BMP_pressure;BME280_temperature;BME280_humidity;BME280_pressure;Samples;Min_cycle;Max_cycle;Signal;HPM_P1;HPM_P2
2023/03/07 00:00:36;;;;;;;14.45;12.45;;;;;;;2.49;100.00;99766.78;6207751;23;19997;-82
2023/03/07 00:03:02;;;;;;;13.20;11.32;;;;;;;2.55;100.00;99765.72;6205525;23;20011;-81
2023/03/07 00:05:27;;;;;;;12.65;11.23;;;;;;;2.49;100.00;99778.16;6208189;23;20012;-83
2023/03/07 00:07:53;;;;;;;11.20;9.80;;;;;;;2.43;100.00;99777.53;6207779;23;20013;-83
2023/03/07 00:10:18;;;;;;;10.75;9.23;;;;;;;2.40;100.00;99775.00;6207464;23;20023;-81
2023/03/07 00:12:43;;;;;;;8.60;7.80;;;;;;;2.34;100.00;99778.72;6204059;23;20380;-81
2023/03/07 00:15:09;;;;;;;10.70;7.95;;;;;;;2.30;100.00;99774.47;6180596;23;20352;-80
2023/03/07 00:17:36;;;;;;;7.10;6.18;;;;;;;2.33;100.00;99784.00;6206099;23;20038;-81
2023/03/07 00:20:05;;;;;;;7.78;6.70;;;;;;;2.28;100.00;99784.16;6206622;23;20015;-82
2023/03/07 00:22:30;;;;;;;6.10;5.50;;;;;;;2.15;100.00;99769.72;6205011;23;20011;-81
2023/03/07 00:24:55;;;;;;;5.43;4.90;;;;;;;2.19;100.00;99763.47;6207050;23;20004;-81
2023/03/07 00:27:21;;;;;;;6.70;5.70;;;;;;;2.18;100.00;99770.47;6206246;23;20027;-82
2023/03/07 00:29:47;;;;;;;5.25;4.65;;;;;;;2.17;100.00;99773.13;6205824;23;20059;-82
2023/03/07 00:32:12;;;;;;;4.10;3.70;;;;;;;2.03;100.00;99762.25;6178544;23;20007;-81
2023/03/07 00:34:38;;;;;;;6.25;4.22;;;;;;;2.06;100.00;99772.66;6178495;23;20343;-82
2023/03/07 00:37:03;;;;;;;5.45;4.60;;;;;;;2.03;100.00;99754.38;6206878;23;20035;-82
2023/03/07 00:39:28;;;;;;;4.80;4.10;;;;;;;2.02;100.00;99750.06;6205763;23;20419;-81
2023/03/07 00:41:54;;;;;;;4.40;3.80;;;;;;;2.02;100.00;99739.56;6205781;23;20000;-82
2023/03/07 00:44:19;;;;;;;3.75;3.45;;;;;;;2.05;100.00;99736.81;6206000;23;20000;-82
2023/03/07 00:46:44;;;;;;;3.90;3.55;;;;;;;2.04;100.00;99735.94;6206271;23;20129;-82
2023/03/07 00:49:10;;;;;;;4.03;3.63;;;;;;;2.05;100.00;99740.31;6206550;23;20011;-82
2023/03/07 00:51:35;;;;;;;3.78;3.47;;;;;;;2.05;100.00;99727.19;6203723;23;20422;-81
2023/03/07 00:54:00;;;;;;;4.38;3.97;;;;;;;2.05;100.00;99721.06;6205898;23;20005;-82
2023/03/07 00:56:26;;;;;;;4.68;4.22;;;;;;;2.09;100.00;99731.44;6206810;23;20000;-82
2023/03/07 00:58:52;;;;;;;5.25;4.10;;;;;;;2.09;100.00;99726.19;6179089;23;20012;-81
2023/03/07 01:01:23;;;;;;;6.07;4.63;;;;;;;2.11;100.00;99728.72;6206527;23;20000;-81
2023/03/07 01:03:51;;;;;;;5.38;4.43;;;;;;;2.10;100.00;99727.03;6204473;23;20035;-81
2023/03/07 01:06:18;;;;;;;5.50;4.60;;;;;;;2.11;100.00;99723.50;6206952;23;20009;-81
2023/03/07 01:08:44;;;;;;;6.35;5.07;;;;;;;2.10;100.00;99724.41;6206507;23;20017;-81
2023/03/07 01:11:10;;;;;;;7.78;5.35;;;;;;;2.10;100.00;99719.16;6178784;23;20013;-82
2023/03/07 01:13:36;;;;;;;5.93;5.05;;;;;;;2.11;100.00;99724.34;6204298;23;20371;-82
2023/03/07 01:16:07;;;;;;;6.65;5.30;;;;;;;2.12;100.00;99714.69;6203557;23;20008;-82
2023/03/07 01:18:32;;;;;;;8.75;5.78;;;;;;;2.09;100.00;99706.91;6206366;23;20004;-81
2023/03/07 01:20:58;;;;;;;6.53;5.50;;;;;;;2.11;100.00;99713.00;6205735;23;20001;-81
2023/03/07 01:23:23;;;;;;;7.88;6.00;;;;;;;2.13;100.00;99716.41;6205110;23;20008;-82
2023/03/07 01:25:48;;;;;;;6.18;5.25;;;;;;;2.11;100.00;99711.22;6206488;23;20054;-83
2023/03/07 01:28:14;;;;;;;6.65;5.72;;;;;;;2.12;100.00;99704.19;6207380;23;20000;-82
2023/03/07 01:30:40;;;;;;;6.78;6.07;;;;;;;2.14;100.00;99712.88;6207443;23;20072;-82
2023/03/07 01:33:05;;;;;;;7.22;6.45;;;;;;;2.10;100.00;99699.00;6206478;23;20060;-83
2023/03/07 01:35:36;;;;;;;6.97;6.15;;;;;;;2.17;100.00;99707.50;6207501;23;20548;-81
2023/03/07 01:38:02;;;;;;;7.40;6.63;;;;;;;2.20;100.00;99707.41;6207758;23;20012;-82
2023/03/07 01:40:27;;;;;;;7.90;7.03;;;;;;;2.21;100.00;99703.88;6204618;23;20137;-82
2023/03/07 01:42:53;;;;;;;7.18;6.03;;;;;;;2.21;100.00;99696.84;6204042;23;20020;-82
2023/03/07 01:45:33;;;;;;;9.25;7.43;;;;;;;2.24;100.00;99694.13;6206720;23;20441;-82
2023/03/07 01:47:58;;;;;;;8.07;7.20;;;;;;;2.19;100.00;99680.31;6206969;23;20008;-81
2023/03/07 01:50:26;;;;;;;8.75;7.53;;;;;;;2.19;100.00;99671.59;6180944;23;20040;-81
2023/03/07 01:52:55;;;;;;;10.57;7.90;;;;;;;2.21;100.00;99677.63;6205851;23;20051;-81
2023/03/07 01:55:25;;;;;;;9.50;8.50;;;;;;;2.23;100.00;99687.16;6205079;23;20074;-81
2023/03/07 01:57:52;;;;;;;9.55;8.25;;;;;;;2.23;100.00;99670.56;6206620;23;20099;-82
2023/03/07 02:00:29;;;;;;;10.50;8.50;;;;;;;2.22;100.00;99672.34;6204985;23;20035;-82
2023/03/07 02:03:10;;;;;;;10.13;8.43;;;;;;;2.23;100.00;99670.56;6191139;23;20011;-82
2023/03/07 02:05:40;;;;;;;11.98;8.98;;;;;;;2.20;100.00;99665.41;6219392;23;20012;-82
2023/03/07 02:08:12;;;;;;;9.52;8.52;;;;;;;2.18;100.00;99665.47;6217579;23;20008;-82
2023/03/07 02:10:40;;;;;;;10.75;9.52;;;;;;;2.18;100.00;99662.00;6185249;23;20008;-83
2023/03/07 02:13:06;;;;;;;11.07;9.55;;;;;;;2.18;100.00;99667.25;6211298;23;20005;-82
2023/03/07 02:15:33;;;;;;;13.65;10.52;;;;;;;2.18;100.00;99660.22;6208490;23;20410;-82
2023/03/07 02:17:58;;;;;;;13.43;10.70;;;;;;;2.18;100.00;99656.75;6208012;23;20083;-82
2023/03/07 02:20:42;;;;;;;13.25;10.20;;;;;;;2.18;100.00;99667.25;6208433;23;20082;-82
2023/03/07 02:23:12;;;;;;;14.27;9.13;;;;;;;2.19;100.00;99658.44;6207656;23;20450;-82
2023/03/07 02:25:40;;;;;;;12.27;9.48;;;;;;;2.19;100.00;99658.44;6208905;23;20019;-82
2023/03/07 02:28:09;;;;;;;9.57;8.30;;;;;;;2.16;100.00;99653.31;6209438;23;20007;-82
2023/03/07 02:30:50;;;;;;;10.50;8.48;;;;;;;2.15;100.00;99652.44;6206904;23;20363;-82
2023/03/07 02:33:16;;;;;;;11.73;8.70;;;;;;;2.13;100.00;99638.53;6208146;23;20000;-81
2023/03/07 02:35:41;;;;;;;11.75;9.25;;;;;;;2.17;100.00;99640.16;6207552;23;20012;-82
2023/03/07 02:38:06;;;;;;;11.48;8.93;;;;;;;2.18;100.00;99647.09;6207644;23;20009;-82
2023/03/07 02:40:32;;;;;;;10.15;9.07;;;;;;;2.15;100.00;99643.72;6206854;23;20027;-81
2023/03/07 02:43:04;;;;;;;10.82;9.38;;;;;;;2.16;100.00;99646.28;6207416;23;20020;-82
2023/03/07 02:45:29;;;;;;;10.85;8.48;;;;;;;2.16;100.00;99641.03;6207703;23;20020;-82
2023/03/07 02:47:55;;;;;;;12.05;9.25;;;;;;;2.08;100.00;99621.22;6181296;23;20326;-82
2023/03/07 02:50:20;;;;;;;11.57;9.50;;;;;;;2.11;100.00;99629.84;6208185;23;20004;-84
2023/03/07 02:52:45;;;;;;;12.55;9.27;;;;;;;2.10;100.00;99633.38;6206653;23;20559;-82
2023/03/07 02:55:11;;;;;;;10.88;8.82;;;;;;;2.14;100.00;99634.16;6181793;23;20435;-82
2023/03/07 02:57:36;;;;;;;11.73;9.52;;;;;;;2.14;100.00;99636.78;6208054;23;20434;-82
2023/03/07 03:00:06;;;;;;;11.20;9.20;;;;;;;2.13;100.00;99632.41;6207830;23;20012;-83
2023/03/07 03:02:31;;;;;;;10.80;8.88;;;;;;;2.12;100.00;99620.19;6206807;23;20000;-81
2023/03/07 03:04:56;;;;;;;9.93;8.73;;;;;;;2.12;100.00;99620.19;6208277;23;20058;-82
2023/03/07 03:07:22;;;;;;;10.70;8.77;;;;;;;2.11;100.00;99626.38;6207598;23;20020;-82
2023/03/07 03:09:47;;;;;;;11.70;8.68;;;;;;;2.12;100.00;99617.56;6207664;23;20009;-82
2023/03/07 03:12:12;;;;;;;11.63;8.95;;;;;;;2.09;100.00;99617.69;6207667;23;20009;-82
2023/03/07 03:14:37;;;;;;;10.82;8.70;;;;;;;2.11;100.00;99629.00;6207223;23;20008;-82
2023/03/07 03:17:03;;;;;;;11.52;8.80;;;;;;;2.12;100.00;99625.44;6207975;23;20016;-81
2023/03/07 03:19:28;;;;;;;10.68;8.70;;;;;;;2.06;100.00;99620.44;6205988;23;20087;-82
2023/03/07 03:21:54;;;;;;;11.55;9.15;;;;;;;2.11;100.00;99618.50;6206063;23;20027;-82
2023/03/07 03:24:19;;;;;;;12.10;9.02;;;;;;;2.11;100.00;99629.84;6181447;23;20012;-82
2023/03/07 03:26:44;;;;;;;11.88;8.85;;;;;;;2.04;100.00;99609.13;6207535;23;20004;-82
2023/03/07 03:29:10;;;;;;;14.63;10.52;;;;;;;2.08;100.00;99608.94;6206585;23;20371;-81
2023/03/07 03:31:35;;;;;;;14.38;9.98;;;;;;;2.10;100.00;99612.41;6206061;23;20032;-83
2023/03/07 03:34:01;;;;;;;13.93;10.25;;;;;;;2.08;100.00;99613.34;6207577;23;20009;-81
2023/03/07 03:36:27;;;;;;;13.02;9.68;;;;;;;2.07;100.00;99609.00;6206332;23;20589;-83
2023/03/07 03:38:54;;;;;;;14.40;10.82;;;;;;;2.09;100.00;99608.06;6206498;23;20533;-81
2023/03/07 03:41:19;;;;;;;14.50;10.95;;;;;;;2.13;100.00;99616.66;6205440;23;20072;-81
2023/03/07 03:43:45;;;;;;;18.98;12.25;;;;;;;2.05;100.00;99602.94;6205953;23;20035;-81
2023/03/07 03:46:10;;;;;;;17.90;11.60;;;;;;;2.07;100.00;99595.88;6208036;23;20076;-82
2023/03/07 03:48:36;;;;;;;16.60;11.52;;;;;;;2.08;100.00;99608.94;6206603;23;20024;-82
2023/03/07 03:51:04;;;;;;;16.52;11.27;;;;;;;2.09;100.00;99599.31;6205183;23;20004;-82
2023/03/07 03:53:34;;;;;;;15.35;11.32;;;;;;;2.09;100.00;99600.19;6207654;23;20004;-80
2023/03/07 03:56:01;;;;;;;17.58;11.93;;;;;;;2.09;100.00;99600.19;6208975;23;20003;-81
2023/03/07 03:58:26;;;;;;;17.08;12.25;;;;;;;2.10;100.00;99593.16;6206555;23;20004;-81
2023/03/07 04:00:52;;;;;;;15.27;11.57;;;;;;;2.04;100.00;99580.25;6206448;23;20007;-81
2023/03/07 04:03:17;;;;;;;17.30;12.75;;;;;;;2.06;100.00;99587.16;6207622;23;20072;-81
2023/03/07 04:05:42;;;;;;;16.20;11.65;;;;;;;1.98;100.00;99571.69;6205743;23;20020;-82
2023/03/07 04:08:08;;;;;;;16.10;11.52;;;;;;;2.07;100.00;99582.78;6207541;23;20008;-82
2023/03/07 04:10:34;;;;;;;15.35;11.63;;;;;;;2.05;100.00;99580.22;6205893;23;20012;-82
2023/03/07 04:12:59;;;;;;;14.30;10.73;;;;;;;2.02;100.00;99579.47;6206940;23;20004;-83
2023/03/07 04:15:24;;;;;;;13.02;10.38;;;;;;;1.99;100.00;99557.66;6207379;23;20054;-81
2023/03/07 04:17:50;;;;;;;15.27;11.50;;;;;;;1.92;100.00;99542.19;6206358;23;20063;-81
2023/03/07 04:20:16;;;;;;;15.00;11.38;;;;;;;2.04;100.00;99557.47;6206197;23;20331;-81
2023/03/07 04:22:42;;;;;;;15.50;11.50;;;;;;;2.04;100.00;99569.75;6205435;23;20390;-79
2023/03/07 04:25:08;;;;;;;16.17;12.30;;;;;;;2.05;100.00;99561.84;6207689;23;20008;-80
2023/03/07 04:27:34;;;;;;;17.52;11.77;;;;;;;1.93;100.00;99536.91;6206607;23;20007;-81
2023/03/07 04:29:59;;;;;;;15.55;11.82;;;;;;;2.06;100.00;99558.28;6207282;23;20016;-80
2023/03/07 04:32:25;;;;;;;15.70;11.95;;;;;;;2.05;100.00;99555.72;6207446;23;20001;-82
2023/03/07 04:34:50;;;;;;;16.40;11.25;;;;;;;2.02;100.00;99540.94;6220407;23;20004;-81
2023/03/07 04:37:15;;;;;;;17.60;13.38;;;;;;;2.08;100.00;99545.97;6218014;23;20016;-81
2023/03/07 04:39:40;;;;;;;18.00;12.88;;;;;;;2.09;100.00;99546.81;6213410;23;20016;-82
2023/03/07 04:42:06;;;;;;;19.73;12.80;;;;;;;2.04;100.00;99535.63;6209476;23;20005;-81
2023/03/07 04:44:31;;;;;;;18.35;13.45;;;;;;;2.03;100.00;99533.94;6206018;23;20039;-81
2023/03/07 04:46:57;;;;;;;22.48;13.85;;;;;;;2.05;100.00;99526.84;6206853;23;20005;-82
2023/03/07 04:49:22;;;;;;;21.48;14.13;;;;;;;2.12;100.00;99530.97;6206097;23;20028;-82
2023/03/07 04:51:47;;;;;;;20.65;14.10;;;;;;;2.05;100.00;99522.47;6204765;23;20094;-81
2023/03/07 04:54:12;;;;;;;20.20;13.90;;;;;;;2.10;100.00;99535.41;6207564;23;20000;-82
2023/03/07 04:56:38;;;;;;;20.30;14.38;;;;;;;2.10;100.00;99523.16;6207384;23;20111;-81
2023/03/07 04:59:03;;;;;;;21.50;14.23;;;;;;;2.09;100.00;99525.81;6208340;23;20016;-82
2023/03/07 05:01:28;;;;;;;18.73;14.27;;;;;;;2.08;100.00;99516.22;6178256;23;20460;-82
2023/03/07 05:03:54;;;;;;;20.08;13.57;;;;;;;2.03;100.00;99516.41;6206438;23;20008;-82
2023/03/07 05:06:19;;;;;;;18.05;13.25;;;;;;;1.91;100.00;99496.72;6206940;23;20027;-81
2023/03/07 05:08:44;;;;;;;17.40;13.15;;;;;;;2.08;100.00;99513.59;6206359;23;20032;-81
2023/03/07 05:11:10;;;;;;;19.67;13.48;;;;;;;2.09;100.00;99520.56;6206902;23;20013;-81
2023/03/07 05:13:35;;;;;;;22.15;13.73;;;;;;;2.02;100.00;99505.97;6205736;23;20043;-83
2023/03/07 05:16:01;;;;;;;21.85;14.23;;;;;;;2.08;100.00;99517.09;6206796;23;20004;-81
2023/03/07 05:18:26;;;;;;;21.48;14.18;;;;;;;2.03;100.00;99505.06;6206432;23;20015;-80
2023/03/07 05:20:52;;;;;;;19.70;13.52;;;;;;;2.02;100.00;99500.72;6179933;23;20469;-81
2023/03/07 05:23:17;;;;;;;21.10;13.23;;;;;;;2.05;100.00;99508.47;6207251;23;20036;-81
2023/03/07 05:25:43;;;;;;;19.00;13.63;;;;;;;1.96;100.00;99500.03;6207592;23;20005;-80
2023/03/07 05:28:08;;;;;;;17.15;12.93;;;;;;;2.00;100.00;99496.38;6210799;23;20071;-81
2023/03/07 05:30:34;;;;;;;16.27;12.50;;;;;;;2.01;100.00;99502.50;6208621;23;20000;-81
2023/03/07 05:32:59;;;;;;;18.40;13.30;;;;;;;1.96;100.00;99488.66;6205317;23;20447;-80
2023/03/07 05:35:24;;;;;;;18.08;13.00;;;;;;;1.98;100.00;99492.13;6206820;23;20016;-82
2023/03/07 05:37:51;;;;;;;20.20;13.65;;;;;;;1.91;100.00;99474.88;6205837;23;20461;-81
2023/03/07 05:40:17;;;;;;;21.27;13.73;;;;;;;1.99;100.00;99483.31;6206133;23;20008;-83
2023/03/07 05:42:42;;;;;;;22.48;14.90;;;;;;;1.90;100.00;99467.94;6205676;23;20020;-82
2023/03/07 05:45:09;;;;;;;22.75;15.32;;;;;;;2.04;100.00;99480.50;6207300;23;20008;-82
2023/03/07 05:47:34;;;;;;;24.77;15.82;;;;;;;2.02;100.00;99472.72;6206577;23;20164;-83
2023/03/07 05:50:00;;;;;;;23.13;16.10;;;;;;;2.05;100.00;99477.84;6207012;23;20039;-83
2023/03/07 05:52:26;;;;;;;24.02;15.15;;;;;;;2.02;100.00;99474.47;6205591;23;20005;-83
2023/03/07 05:54:52;;;;;;;27.52;17.40;;;;;;;1.97;100.00;99464.16;6203473;23;20004;-83
2023/03/07 05:57:17;;;;;;;26.00;17.50;;;;;;;1.98;100.00;99461.47;6203890;23;20004;-82
2023/03/07 05:59:42;;;;;;;28.55;17.90;;;;;;;2.01;100.00;99465.75;6200794;23;20071;-82
2023/03/07 06:02:08;;;;;;;25.42;17.35;;;;;;;2.12;100.00;99478.47;6200232;23;20008;-83
2023/03/07 06:04:33;;;;;;;28.40;18.38;;;;;;;2.12;100.00;99483.72;6200131;23;20040;-81
2023/03/07 06:06:58;;;;;;;30.70;19.25;;;;;;;2.09;100.00;99473.31;6201694;23;20086;-81
2023/03/07 06:09:24;;;;;;;31.75;18.95;;;;;;;2.16;100.00;99480.91;6202599;23;20469;-82
2023/03/07 06:11:50;;;;;;;31.13;20.40;;;;;;;2.16;100.00;99475.66;6203878;23;20004;-81
2023/03/07 06:14:15;;;;;;;30.08;20.13;;;;;;;2.13;100.00;99477.53;6200434;23;20016;-81
2023/03/07 06:16:40;;;;;;;27.58;20.55;;;;;;;2.06;100.00;99476.09;6198068;23;20035;-82
2023/03/07 06:19:06;;;;;;;24.60;18.13;;;;;;;1.93;100.00;99468.66;6197866;23;20013;-83
2023/03/07 06:21:31;;;;;;;26.40;19.08;;;;;;;1.89;100.00;99456.56;6199631;23;20016;-82
2023/03/07 06:23:57;;;;;;;21.95;16.63;;;;;;;1.82;100.00;99455.09;6201214;23;20419;-83
2023/03/07 06:26:22;;;;;;;23.63;17.25;;;;;;;1.90;100.00;99475.78;6177911;23;20072;-82
2023/03/07 06:28:47;;;;;;;22.25;16.50;;;;;;;1.79;100.00;99465.69;6203798;23;20484;-82
2023/03/07 06:31:15;;;;;;;20.48;15.32;;;;;;;1.72;100.00;99458.97;6203801;23;20008;-81
2023/03/07 06:33:41;;;;;;;17.65;14.93;;;;;;;1.72;100.00;99461.59;6178265;23;20346;-81
2023/03/07 06:36:10;;;;;;;18.25;15.05;;;;;;;1.81;100.00;99482.25;6206353;23;20017;-81
2023/03/07 06:38:35;;;;;;;21.08;15.85;;;;;;;1.70;100.00;99464.25;6177222;23;20537;-83
2023/03/07 06:41:01;;;;;;;20.13;15.05;;;;;;;1.74;100.00;99478.13;6205337;23;20032;-83
2023/03/07 06:43:26;;;;;;;22.48;16.30;;;;;;;1.67;100.00;99461.78;6205712;23;20024;-83
2023/03/07 06:45:52;;;;;;;21.95;15.63;;;;;;;1.81;100.00;99482.25;6206238;23;20008;-84
2023/03/07 06:48:17;;;;;;;17.25;14.30;;;;;;;1.78;100.00;99484.97;6179339;23;20008;-81
2023/03/07 06:50:44;;;;;;;19.13;14.05;;;;;;;1.74;100.00;99476.34;6204118;23;20004;-83
2023/03/07 06:53:09;;;;;;;17.80;13.40;;;;;;;1.70;100.00;99468.66;6206594;23;20004;-83
2023/03/07 06:55:35;;;;;;;14.88;12.43;;;;;;;1.71;100.00;99486.09;6206166;23;20012;-83
2023/03/07 06:58:00;;;;;;;13.05;10.10;;;;;;;1.63;100.00;99465.41;6214700;23;20001;-84
2023/03/07 07:00:26;;;;;;;12.75;9.98;;;;;;;1.67;100.00;99477.50;6218831;23;20005;-82
2023/03/07 07:02:51;;;;;;;13.10;9.10;;;;;;;1.57;100.00;99486.59;6217920;23;20004;-82
2023/03/07 07:05:17;;;;;;;10.68;8.02;;;;;;;1.53;100.00;99489.38;6211448;23;20063;-82
2023/03/07 07:07:42;;;;;;;8.40;6.53;;;;;;;1.45;100.00;99497.53;6207864;23;20044;-82
2023/03/07 07:10:08;;;;;;;7.95;6.70;;;;;;;1.36;100.00;99488.22;6208084;23;20009;-85
2023/03/07 07:12:34;;;;;;;8.57;6.93;;;;;;;1.35;100.00;99488.28;6208505;23;20008;-83
2023/03/07 07:15:04;;;;;;;9.85;7.65;;;;;;;1.33;100.00;99487.47;6182402;23;20015;-83
2023/03/07 07:17:30;;;;;;;12.48;7.88;;;;;;;1.36;100.00;99498.69;6208029;23;20009;-83
2023/03/07 07:19:55;;;;;;;9.48;8.02;;;;;;;1.22;100.00;99483.47;6208789;23;20227;-84
2023/03/07 07:22:22;;;;;;;11.48;8.15;;;;;;;1.28;100.00;99494.63;6208362;23;20029;-84
2023/03/07 07:24:47;;;;;;;12.32;9.00;;;;;;;1.01;100.00;99459.75;6207224;23;20008;-84
2023/03/07 07:27:12;;;;;;;11.88;8.90;;;;;;;1.15;100.00;99495.06;6207256;23;20315;-84
2023/03/07 07:29:38;;;;;;;12.40;9.77;;;;;;;1.09;100.00;99476.06;6206510;23;20554;-84
2023/03/07 07:32:03;;;;;;;13.85;9.70;;;;;;;1.19;100.00;99498.44;6207669;23;20008;-83
2023/03/07 07:34:28;;;;;;;11.23;9.57;;;;;;;1.07;100.00;99483.13;6206780;23;20008;-84
2023/03/07 07:36:55;;;;;;;12.65;8.85;;;;;;;1.14;100.00;99498.59;6207944;23;20427;-85
2023/03/07 07:39:20;;;;;;;11.70;8.80;;;;;;;0.99;100.00;99486.84;6206279;23;20000;-84
2023/03/07 07:41:46;;;;;;;11.18;8.30;;;;;;;1.05;100.00;99508.53;6205690;23;20608;-85
2023/03/07 07:44:12;;;;;;;8.23;6.85;;;;;;;0.96;100.00;99525.38;6205345;23;20039;-84
2023/03/07 07:46:37;;;;;;;9.40;7.47;;;;;;;0.89;100.00;99537.84;6206212;23;20012;-85
2023/03/07 07:49:03;;;;;;;10.35;8.02;;;;;;;0.88;100.00;99537.88;6206259;23;20008;-83
2023/03/07 07:51:28;;;;;;;10.25;7.55;;;;;;;0.66;100.00;99522.00;6178684;23;20082;-84
2023/03/07 07:53:53;;;;;;;10.68;7.88;;;;;;;0.63;100.00;99532.59;6181186;23;20051;-83
2023/03/07 07:56:19;;;;;;;12.15;8.45;;;;;;;0.64;100.00;99556.09;6209694;23;20019;-84
2023/03/07 07:58:45;;;;;;;12.68;8.38;;;;;;;0.54;100.00;99548.56;6182603;23;20331;-83
2023/03/07 08:01:19;;;;;;;11.63;8.50;;;;;;;0.54;100.00;99566.88;6206619;23;20001;-83
2023/03/07 08:03:44;;;;;;;;;;;;;;;0.53;100.00;99562.56;6207780;23;20016;-84
2023/03/07 08:06:10;;;;;;;13.85;9.05;;;;;;;0.43;100.00;99541.03;6207032;23;19966;-84
2023/03/07 08:08:36;;;;;;;13.43;9.05;;;;;;;0.45;100.00;99534.84;6207228;23;20367;-85
2023/03/07 08:11:02;;;;;;;10.60;8.48;;;;;;;0.36;100.00;99527.28;6206427;23;20514;-83
2023/03/07 08:13:27;;;;;;;12.65;9.43;;;;;;;0.44;100.00;99538.38;6180097;23;20004;-83
2023/03/07 08:15:53;;;;;;;11.80;9.40;;;;;;;0.52;100.00;99547.75;6206499;23;20417;-84
2023/03/07 08:18:18;;;;;;;15.05;10.13;;;;;;;0.61;100.00;99561.41;6207571;23;20087;-83
2023/03/07 08:20:43;;;;;;;13.43;9.07;;;;;;;0.62;100.00;99567.50;6204209;23;20012;-82
2023/03/07 08:23:08;;;;;;;13.13;9.80;;;;;;;0.57;100.00;99558.94;6181146;23;20518;-81
2023/03/07 08:25:34;;;;;;;14.40;9.63;;;;;;;0.72;100.00;99563.72;6205274;23;20096;-82
2023/03/07 08:28:02;;;;;;;13.48;10.00;;;;;;;0.69;100.00;99563.81;6206584;23;20462;-83
2023/03/07 08:30:29;;;;;;;12.57;9.57;;;;;;;0.58;100.00;99563.25;6205203;23;20103;-83
2023/03/07 08:32:55;;;;;;;14.93;10.63;;;;;;;0.59;100.00;99578.94;6206721;23;20000;-83
2023/03/07 08:35:21;;;;;;;12.80;9.70;;;;;;;0.42;100.00;99568.97;6206748;23;20009;-84
2023/03/07 08:37:48;;;;;;;15.65;10.32;;;;;;;0.35;100.00;99564.81;6207267;23;20008;-83
2023/03/07 08:40:15;;;;;;;16.88;10.73;;;;;;;0.39;100.00;99587.41;6204930;23;20008;-82
2023/03/07 08:42:41;;;;;;;14.20;10.45;;;;;;;0.14;100.00;99561.06;6205869;23;20119;-83
2023/03/07 08:45:07;;;;;;;14.93;11.20;;;;;;;0.32;100.00;99585.84;6205964;23;20016;-82
2023/03/07 08:47:32;;;;;;;15.73;11.93;;;;;;;0.34;100.00;99578.81;6206386;23;20071;-83
2023/03/07 08:49:58;;;;;;;15.68;11.48;;;;;;;0.28;100.00;99563.28;6205130;23;20005;-83
2023/03/07 08:52:23;;;;;;;14.77;10.48;;;;;;;0.28;100.00;99586.84;6206346;23;20087;-82
2023/03/07 08:54:48;;;;;;;16.10;11.70;;;;;;;0.42;100.00;99579.47;6214491;23;20012;-82
2023/03/07 08:57:13;;;;;;;17.15;11.57;;;;;;;0.36;100.00;99579.63;6221506;23;20000;-82
2023/03/07 08:59:39;;;;;;;15.00;11.10;;;;;;;0.32;100.00;99583.22;6219874;23;20011;-82
2023/03/07 09:02:05;;;;;;;16.65;11.68;;;;;;;0.40;100.00;99570.78;6220804;23;20004;-81
2023/03/07 09:04:30;;;;;;;17.98;12.02;;;;;;;0.38;100.00;99566.50;6214495;23;20008;-81
2023/03/07 09:06:57;;;;;;;15.73;11.70;;;;;;;0.26;100.00;99575.56;6209845;23;20346;-81
2023/03/07 09:09:22;;;;;;;16.80;10.98;;;;;;;0.27;100.00;99589.50;6210734;23;20012;-83
2023/03/07 09:11:48;;;;;;;15.43;10.82;;;;;;;0.14;100.00;99582.00;6218801;23;20011;-82
2023/03/07 09:14:13;;;;;;;17.00;11.43;;;;;;;-0.04;100.00;99564.22;6218866;23;20005;-84
2023/03/07 09:16:38;;;;;;;16.75;11.18;;;;;;;0.01;100.00;99588.50;6215294;23;20091;-83
2023/03/07 09:19:04;;;;;;;15.23;11.35;;;;;;;0.07;100.00;99590.06;6206251;23;20068;-84
2023/03/07 09:21:30;;;;;;;17.65;12.20;;;;;;;0.22;100.00;99590.50;6179866;23;20005;-84
2023/03/07 09:23:55;;;;;;;19.20;12.43;;;;;;;0.05;100.00;99561.34;6206247;23;20378;-82
2023/03/07 09:26:20;;;;;;;16.35;11.35;;;;;;;0.21;100.00;99595.78;6207707;23;20004;-82
2023/03/07 09:28:46;;;;;;;17.02;11.27;;;;;;;0.13;100.00;99595.16;6206544;23;20081;-83
2023/03/07 09:31:13;;;;;;;18.90;11.77;;;;;;;0.18;100.00;99598.47;6207845;23;20005;-82
2023/03/07 09:33:39;;;;;;;20.65;13.00;;;;;;;0.28;100.00;99601.69;6207287;23;20008;-84
2023/03/07 09:36:06;;;;;;;22.48;14.60;;;;;;;0.30;100.00;99607.75;6207953;23;20008;-85
2023/03/07 09:38:31;;;;;;;17.67;13.23;;;;;;;0.28;100.00;99601.69;6205216;23;20079;-82
2023/03/07 09:41:23;;;;;;;20.33;13.38;;;;;;;0.26;100.00;99599.13;6206984;23;20024;-83
2023/03/07 09:44:21;;;;;;;19.30;12.52;;;;;;;0.29;100.00;99598.16;6206529;23;20013;-82
2023/03/07 09:47:09;;;;;;;18.10;13.65;;;;;;;0.37;100.00;99609.25;6206129;23;20036;-83
2023/03/07 09:49:48;;;;;;;19.25;12.93;;;;;;;0.22;100.00;99581.78;6205254;23;20315;-84
2023/03/07 09:52:20;;;;;;;16.77;11.82;;;;;;;0.32;100.00;99601.56;6205633;23;20009;-84
2023/03/07 09:54:54;;;;;;;15.57;11.90;;;;;;;0.39;100.00;99604.88;6206618;23;20001;-84
2023/03/07 09:57:25;;;;;;;18.77;12.27;;;;;;;0.38;100.00;99595.31;6208271;23;20009;-83
2023/03/07 10:00:30;;;;;;;15.95;11.30;;;;;;;0.37;100.00;99585.72;6180917;23;20040;-83
2023/03/07 10:03:15;;;;;;;16.15;11.68;;;;;;;0.47;100.00;99600.25;6188165;23;20067;-82
2023/03/07 10:05:43;;;;;;;18.13;11.55;;;;;;;0.49;100.00;99596.69;6205440;23;20023;-83
2023/03/07 10:08:29;;;;;;;14.43;11.35;;;;;;;0.52;100.00;99600.13;6206614;23;20001;-83
2023/03/07 10:11:02;;;;;;;15.05;11.23;;;;;;;0.56;100.00;99599.13;6206722;23;20079;-83
2023/03/07 10:13:49;;;;;;;16.58;12.40;;;;;;;0.72;100.00;99590.75;6180837;23;20005;-83
2023/03/07 10:16:26;;;;;;;19.63;12.85;;;;;;;0.59;100.00;99606.91;6206995;23;20004;-83
2023/03/07 10:19:08;;;;;;;16.15;12.20;;;;;;;0.58;100.00;99606.00;6205539;23;20035;-84
2023/03/07 10:21:39;;;;;;;15.55;11.55;;;;;;;0.59;100.00;99610.38;6204920;23;20284;-83
2023/03/07 10:24:24;;;;;;;14.52;11.32;;;;;;;0.55;100.00;99602.66;6206762;23;20088;-83
2023/03/07 10:27:11;;;;;;;13.27;10.63;;;;;;;0.58;100.00;99613.00;6205999;23;20107;-82
2023/03/07 10:29:49;;;;;;;16.27;13.02;;;;;;;0.59;100.00;99604.28;6201080;23;20004;-83
2023/03/07 10:32:39;;;;;;;14.50;11.52;;;;;;;0.54;100.00;99606.16;6206394;23;20005;-83
2023/03/07 10:35:11;;;;;;;16.40;11.93;;;;;;;0.57;100.00;99606.94;6206533;23;20001;-82
2023/03/07 10:38:08;;;;;;;17.20;12.98;;;;;;;0.61;100.00;99608.53;6205957;23;20031;-83
2023/03/07 10:40:49;;;;;;;18.38;13.32;;;;;;;0.59;100.00;99593.81;6206394;23;20000;-83
2023/03/07 10:43:25;;;;;;;19.85;14.07;;;;;;;0.61;100.00;99602.47;6206393;23;20004;-82
2023/03/07 10:46:08;;;;;;;21.98;13.95;;;;;;;0.74;100.00;99607.28;6207368;23;20079;-85
2023/03/07 10:48:37;;;;;;;20.03;13.70;;;;;;;0.67;100.00;99607.50;6206698;23;20019;-84
2023/03/07 10:51:33;;;;;;;19.67;13.15;;;;;;;0.69;100.00;99606.56;6207280;23;20251;-84
2023/03/07 10:53:58;;;;;;;16.30;12.30;;;;;;;0.60;100.00;99598.13;6208192;23;20027;-83
2023/03/07 10:56:24;;;;;;;16.83;12.77;;;;;;;0.80;100.00;99597.53;6206486;23;20008;-83
2023/03/07 10:59:08;;;;;;;20.40;14.07;;;;;;;0.86;100.00;99610.44;6206780;23;20008;-84
2023/03/07 11:01:35;;;;;;;14.23;11.57;;;;;;;0.82;100.00;99593.09;6207777;23;20035;-83
2023/03/07 11:04:20;;;;;;;14.95;11.65;;;;;;;0.92;100.00;99603.25;6208263;23;20347;-83
2023/03/07 11:06:54;;;;;;;13.90;11.38;;;;;;;1.05;100.00;99597.63;6206535;23;20013;-83
2023/03/07 11:09:30;;;;;;;16.27;12.30;;;;;;;1.06;100.00;99592.31;6207187;23;20067;-83
2023/03/07 11:12:10;;;;;;;13.10;11.15;;;;;;;1.16;100.00;99603.34;6207898;23;20051;-82
2023/03/07 11:14:54;;;;;;;12.25;10.25;;;;;;;1.21;100.00;99604.94;6210428;23;20014;-83
2023/03/07 11:17:23;;;;;;;11.83;10.63;;;;;;;1.17;100.00;99605.06;6212242;23;20009;-83
2023/03/07 11:19:56;;;;;;;12.05;10.80;;;;;;;1.17;100.00;99598.09;6210577;23;20289;-83
2023/03/07 11:22:28;;;;;;;13.65;11.02;;;;;;;1.30;100.00;99598.53;6217282;23;20007;-83
2023/03/07 11:25:17;;;;;;;15.70;11.95;;;;;;;1.55;100.00;99602.94;6216892;23;20144;-82